<?xml version="1.0" encoding="UTF-8" ?>
<gpx version="1.1" xmlns:xsi="http://www.w3.org/2001/XMLSchema-instance" 
    xmlns="http://www.topografix.com/GPX/1/1"
    xsi:schemaLocation="http://www.topografix.com/GPX/1/1 http://www.topografix.com/GPX/1/1/gpx.xsd" 
    creator="Openrunner - https://www.openrunner.com" >	<trk>
	                   <name>Parcours trail Trail 10 kms-17686620</name>
						<trkseg>
					<trkpt lat="48.648350" lon="-0.944770">
						<ele>203</ele>
						<time>2025-09-16T10:21:56Z</time>
					</trkpt>
					<trkpt lat="48.648100" lon="-0.945040">
						<ele>200</ele>
						<time>2025-09-16T10:22:11Z</time>
					</trkpt>
					<trkpt lat="48.647860" lon="-0.945120">
						<ele>197</ele>
						<time>2025-09-16T10:22:24Z</time>
					</trkpt>
					<trkpt lat="48.647890" lon="-0.945500">
						<ele>193</ele>
						<time>2025-09-16T10:22:36Z</time>
					</trkpt>
					<trkpt lat="48.647960" lon="-0.945760">
						<ele>191</ele>
						<time>2025-09-16T10:22:46Z</time>
					</trkpt>
					<trkpt lat="48.648370" lon="-0.946150">
						<ele>188</ele>
						<time>2025-09-16T10:23:10Z</time>
					</trkpt>
					<trkpt lat="48.648600" lon="-0.946300">
						<ele>183</ele>
						<time>2025-09-16T10:23:22Z</time>
					</trkpt>
					<trkpt lat="48.649460" lon="-0.946620">
						<ele>175</ele>
						<time>2025-09-16T10:24:07Z</time>
					</trkpt>
					<trkpt lat="48.649570" lon="-0.946870">
						<ele>175</ele>
						<time>2025-09-16T10:24:17Z</time>
					</trkpt>
					<trkpt lat="48.649690" lon="-0.947000">
						<ele>176</ele>
						<time>2025-09-16T10:24:24Z</time>
					</trkpt>
					<trkpt lat="48.649930" lon="-0.947010">
						<ele>179</ele>
						<time>2025-09-16T10:24:36Z</time>
					</trkpt>
					<trkpt lat="48.650080" lon="-0.946910">
						<ele>180</ele>
						<time>2025-09-16T10:24:44Z</time>
					</trkpt>
					<trkpt lat="48.650300" lon="-0.946970">
						<ele>184</ele>
						<time>2025-09-16T10:24:55Z</time>
					</trkpt>
					<trkpt lat="48.650370" lon="-0.947150">
						<ele>186</ele>
						<time>2025-09-16T10:25:02Z</time>
					</trkpt>
					<trkpt lat="48.650350" lon="-0.947450">
						<ele>188</ele>
						<time>2025-09-16T10:25:12Z</time>
					</trkpt>
					<trkpt lat="48.650610" lon="-0.947530">
						<ele>190</ele>
						<time>2025-09-16T10:25:26Z</time>
					</trkpt>
					<trkpt lat="48.650820" lon="-0.947620">
						<ele>193</ele>
						<time>2025-09-16T10:25:36Z</time>
					</trkpt>
					<trkpt lat="48.651000" lon="-0.947820">
						<ele>196</ele>
						<time>2025-09-16T10:25:48Z</time>
					</trkpt>
					<trkpt lat="48.651140" lon="-0.947460">
						<ele>195</ele>
						<time>2025-09-16T10:26:01Z</time>
					</trkpt>
					<trkpt lat="48.651230" lon="-0.947070">
						<ele>197</ele>
						<time>2025-09-16T10:26:15Z</time>
					</trkpt>
					<trkpt lat="48.651280" lon="-0.946730">
						<ele>198</ele>
						<time>2025-09-16T10:26:27Z</time>
					</trkpt>
					<trkpt lat="48.651700" lon="-0.946790">
						<ele>204</ele>
						<time>2025-09-16T10:26:48Z</time>
					</trkpt>
					<trkpt lat="48.652310" lon="-0.946890">
						<ele>211</ele>
						<time>2025-09-16T10:27:18Z</time>
					</trkpt>
					<trkpt lat="48.652900" lon="-0.946950">
						<ele>215</ele>
						<time>2025-09-16T10:27:48Z</time>
					</trkpt>
					<trkpt lat="48.653520" lon="-0.947110">
						<ele>220</ele>
						<time>2025-09-16T10:28:20Z</time>
					</trkpt>
					<trkpt lat="48.653620" lon="-0.947150">
						<ele>220</ele>
						<time>2025-09-16T10:28:25Z</time>
					</trkpt>
					<trkpt lat="48.653660" lon="-0.946920">
						<ele>221</ele>
						<time>2025-09-16T10:28:33Z</time>
					</trkpt>
					<trkpt lat="48.653770" lon="-0.946520">
						<ele>223</ele>
						<time>2025-09-16T10:28:47Z</time>
					</trkpt>
					<trkpt lat="48.653950" lon="-0.946100">
						<ele>226</ele>
						<time>2025-09-16T10:29:03Z</time>
					</trkpt>
					<trkpt lat="48.654090" lon="-0.945680">
						<ele>230</ele>
						<time>2025-09-16T10:29:19Z</time>
					</trkpt>
					<trkpt lat="48.654170" lon="-0.945450">
						<ele>232</ele>
						<time>2025-09-16T10:29:28Z</time>
					</trkpt>
					<trkpt lat="48.654160" lon="-0.945100">
						<ele>233</ele>
						<time>2025-09-16T10:29:39Z</time>
					</trkpt>
					<trkpt lat="48.654170" lon="-0.944570">
						<ele>226</ele>
						<time>2025-09-16T10:29:57Z</time>
					</trkpt>
					<trkpt lat="48.654250" lon="-0.944130">
						<ele>220</ele>
						<time>2025-09-16T10:30:12Z</time>
					</trkpt>
					<trkpt lat="48.654420" lon="-0.943660">
						<ele>212</ele>
						<time>2025-09-16T10:30:29Z</time>
					</trkpt>
					<trkpt lat="48.654650" lon="-0.943200">
						<ele>209</ele>
						<time>2025-09-16T10:30:49Z</time>
					</trkpt>
					<trkpt lat="48.654910" lon="-0.943130">
						<ele>214</ele>
						<time>2025-09-16T10:31:02Z</time>
					</trkpt>
					<trkpt lat="48.655150" lon="-0.942730">
						<ele>214</ele>
						<time>2025-09-16T10:31:20Z</time>
					</trkpt>
					<trkpt lat="48.655510" lon="-0.942800">
						<ele>221</ele>
						<time>2025-09-16T10:31:38Z</time>
					</trkpt>
					<trkpt lat="48.655800" lon="-0.943240">
						<ele>226</ele>
						<time>2025-09-16T10:31:58Z</time>
					</trkpt>
					<trkpt lat="48.655930" lon="-0.943860">
						<ele>228</ele>
						<time>2025-09-16T10:32:20Z</time>
					</trkpt>
					<trkpt lat="48.656000" lon="-0.944070">
						<ele>228</ele>
						<time>2025-09-16T10:32:28Z</time>
					</trkpt>
					<trkpt lat="48.656220" lon="-0.944280">
						<ele>230</ele>
						<time>2025-09-16T10:32:41Z</time>
					</trkpt>
					<trkpt lat="48.656720" lon="-0.944660">
						<ele>229</ele>
						<time>2025-09-16T10:33:09Z</time>
					</trkpt>
					<trkpt lat="48.657210" lon="-0.945260">
						<ele>226</ele>
						<time>2025-09-16T10:33:40Z</time>
					</trkpt>
					<trkpt lat="48.657490" lon="-0.945950">
						<ele>227</ele>
						<time>2025-09-16T10:34:07Z</time>
					</trkpt>
					<trkpt lat="48.657580" lon="-0.946400">
						<ele>229</ele>
						<time>2025-09-16T10:34:22Z</time>
					</trkpt>
					<trkpt lat="48.657710" lon="-0.946910">
						<ele>231</ele>
						<time>2025-09-16T10:34:41Z</time>
					</trkpt>
					<trkpt lat="48.657900" lon="-0.947190">
						<ele>233</ele>
						<time>2025-09-16T10:34:54Z</time>
					</trkpt>
					<trkpt lat="48.658290" lon="-0.947310">
						<ele>234</ele>
						<time>2025-09-16T10:35:14Z</time>
					</trkpt>
					<trkpt lat="48.658450" lon="-0.947350">
						<ele>235</ele>
						<time>2025-09-16T10:35:22Z</time>
					</trkpt>
					<trkpt lat="48.658660" lon="-0.946990">
						<ele>235</ele>
						<time>2025-09-16T10:35:38Z</time>
					</trkpt>
					<trkpt lat="48.658850" lon="-0.946830">
						<ele>235</ele>
						<time>2025-09-16T10:35:49Z</time>
					</trkpt>
					<trkpt lat="48.659050" lon="-0.946490">
						<ele>235</ele>
						<time>2025-09-16T10:36:04Z</time>
					</trkpt>
					<trkpt lat="48.659270" lon="-0.946220">
						<ele>235</ele>
						<time>2025-09-16T10:36:18Z</time>
					</trkpt>
					<trkpt lat="48.659960" lon="-0.945680">
						<ele>241</ele>
						<time>2025-09-16T10:36:57Z</time>
					</trkpt>
					<trkpt lat="48.660440" lon="-0.945340">
						<ele>239</ele>
						<time>2025-09-16T10:37:23Z</time>
					</trkpt>
					<trkpt lat="48.660850" lon="-0.945080">
						<ele>237</ele>
						<time>2025-09-16T10:37:45Z</time>
					</trkpt>
					<trkpt lat="48.661120" lon="-0.945110">
						<ele>236</ele>
						<time>2025-09-16T10:37:59Z</time>
					</trkpt>
					<trkpt lat="48.661440" lon="-0.945510">
						<ele>236</ele>
						<time>2025-09-16T10:38:20Z</time>
					</trkpt>
					<trkpt lat="48.661620" lon="-0.945820">
						<ele>238</ele>
						<time>2025-09-16T10:38:33Z</time>
					</trkpt>
					<trkpt lat="48.661900" lon="-0.945820">
						<ele>240</ele>
						<time>2025-09-16T10:38:47Z</time>
					</trkpt>
					<trkpt lat="48.662490" lon="-0.945230">
						<ele>237</ele>
						<time>2025-09-16T10:39:23Z</time>
					</trkpt>
					<trkpt lat="48.663120" lon="-0.944400">
						<ele>240</ele>
						<time>2025-09-16T10:40:05Z</time>
					</trkpt>
					<trkpt lat="48.663700" lon="-0.943460">
						<ele>239</ele>
						<time>2025-09-16T10:40:47Z</time>
					</trkpt>
					<trkpt lat="48.663990" lon="-0.942730">
						<ele>236</ele>
						<time>2025-09-16T10:41:15Z</time>
					</trkpt>
					<trkpt lat="48.664130" lon="-0.942200">
						<ele>235</ele>
						<time>2025-09-16T10:41:34Z</time>
					</trkpt>
					<trkpt lat="48.664150" lon="-0.941660">
						<ele>234</ele>
						<time>2025-09-16T10:41:52Z</time>
					</trkpt>
					<trkpt lat="48.664170" lon="-0.941410">
						<ele>233</ele>
						<time>2025-09-16T10:42:00Z</time>
					</trkpt>
					<trkpt lat="48.664310" lon="-0.941190">
						<ele>234</ele>
						<time>2025-09-16T10:42:10Z</time>
					</trkpt>
					<trkpt lat="48.664770" lon="-0.940000">
						<ele>235</ele>
						<time>2025-09-16T10:42:56Z</time>
					</trkpt>
					<trkpt lat="48.665770" lon="-0.936540">
						<ele>236</ele>
						<time>2025-09-16T10:45:01Z</time>
					</trkpt>
					<trkpt lat="48.666320" lon="-0.934650">
						<ele>238</ele>
						<time>2025-09-16T10:46:09Z</time>
					</trkpt>
					<trkpt lat="48.666810" lon="-0.933000">
						<ele>236</ele>
						<time>2025-09-16T10:47:09Z</time>
					</trkpt>
					<trkpt lat="48.667440" lon="-0.930750">
						<ele>240</ele>
						<time>2025-09-16T10:48:30Z</time>
					</trkpt>
					<trkpt lat="48.667870" lon="-0.929290">
						<ele>240</ele>
						<time>2025-09-16T10:49:22Z</time>
					</trkpt>
					<trkpt lat="48.667520" lon="-0.929640">
						<ele>238</ele>
						<time>2025-09-16T10:49:43Z</time>
					</trkpt>
					<trkpt lat="48.667360" lon="-0.930370">
						<ele>238</ele>
						<time>2025-09-16T10:50:09Z</time>
					</trkpt>
					<trkpt lat="48.666960" lon="-0.930930">
						<ele>236</ele>
						<time>2025-09-16T10:50:36Z</time>
					</trkpt>
					<trkpt lat="48.666590" lon="-0.931680">
						<ele>234</ele>
						<time>2025-09-16T10:51:07Z</time>
					</trkpt>
					<trkpt lat="48.666260" lon="-0.931830">
						<ele>233</ele>
						<time>2025-09-16T10:51:24Z</time>
					</trkpt>
					<trkpt lat="48.665440" lon="-0.932150">
						<ele>233</ele>
						<time>2025-09-16T10:52:07Z</time>
					</trkpt>
					<trkpt lat="48.665220" lon="-0.932280">
						<ele>233</ele>
						<time>2025-09-16T10:52:19Z</time>
					</trkpt>
					<trkpt lat="48.664620" lon="-0.932840">
						<ele>235</ele>
						<time>2025-09-16T10:52:54Z</time>
					</trkpt>
					<trkpt lat="48.663870" lon="-0.933550">
						<ele>240</ele>
						<time>2025-09-16T10:53:38Z</time>
					</trkpt>
					<trkpt lat="48.663500" lon="-0.933950">
						<ele>242</ele>
						<time>2025-09-16T10:54:01Z</time>
					</trkpt>
					<trkpt lat="48.663040" lon="-0.934580">
						<ele>244</ele>
						<time>2025-09-16T10:54:32Z</time>
					</trkpt>
					<trkpt lat="48.662530" lon="-0.935010">
						<ele>248</ele>
						<time>2025-09-16T10:55:01Z</time>
					</trkpt>
					<trkpt lat="48.662140" lon="-0.935470">
						<ele>251</ele>
						<time>2025-09-16T10:55:26Z</time>
					</trkpt>
					<trkpt lat="48.661100" lon="-0.936410">
						<ele>260</ele>
						<time>2025-09-16T10:56:26Z</time>
					</trkpt>
					<trkpt lat="48.660500" lon="-0.936960">
						<ele>266</ele>
						<time>2025-09-16T10:57:02Z</time>
					</trkpt>
					<trkpt lat="48.660230" lon="-0.937030">
						<ele>268</ele>
						<time>2025-09-16T10:57:15Z</time>
					</trkpt>
					<trkpt lat="48.658640" lon="-0.936410">
						<ele>281</ele>
						<time>2025-09-16T10:58:37Z</time>
					</trkpt>
					<trkpt lat="48.657400" lon="-0.936040">
						<ele>287</ele>
						<time>2025-09-16T10:59:41Z</time>
					</trkpt>
					<trkpt lat="48.656950" lon="-0.936380">
						<ele>285</ele>
						<time>2025-09-16T11:00:06Z</time>
					</trkpt>
					<trkpt lat="48.655470" lon="-0.937040">
						<ele>274</ele>
						<time>2025-09-16T11:01:23Z</time>
					</trkpt>
					<trkpt lat="48.654810" lon="-0.937300">
						<ele>271</ele>
						<time>2025-09-16T11:01:57Z</time>
					</trkpt>
					<trkpt lat="48.654600" lon="-0.936070">
						<ele>282</ele>
						<time>2025-09-16T11:02:39Z</time>
					</trkpt>
					<trkpt lat="48.654700" lon="-0.935760">
						<ele>285</ele>
						<time>2025-09-16T11:02:51Z</time>
					</trkpt>
					<trkpt lat="48.654910" lon="-0.935590">
						<ele>288</ele>
						<time>2025-09-16T11:03:02Z</time>
					</trkpt>
					<trkpt lat="48.655510" lon="-0.935260">
						<ele>294</ele>
						<time>2025-09-16T11:03:34Z</time>
					</trkpt>
					<trkpt lat="48.655870" lon="-0.934990">
						<ele>299</ele>
						<time>2025-09-16T11:03:55Z</time>
					</trkpt>
					<trkpt lat="48.656010" lon="-0.934630">
						<ele>303</ele>
						<time>2025-09-16T11:04:08Z</time>
					</trkpt>
					<trkpt lat="48.656150" lon="-0.934010">
						<ele>308</ele>
						<time>2025-09-16T11:04:30Z</time>
					</trkpt>
					<trkpt lat="48.656530" lon="-0.933080">
						<ele>309</ele>
						<time>2025-09-16T11:05:06Z</time>
					</trkpt>
					<trkpt lat="48.655370" lon="-0.932940">
						<ele>306</ele>
						<time>2025-09-16T11:06:04Z</time>
					</trkpt>
					<trkpt lat="48.654200" lon="-0.932770">
						<ele>308</ele>
						<time>2025-09-16T11:07:03Z</time>
					</trkpt>
					<trkpt lat="48.652760" lon="-0.932530">
						<ele>312</ele>
						<time>2025-09-16T11:08:16Z</time>
					</trkpt>
					<trkpt lat="48.651700" lon="-0.932380">
						<ele>315</ele>
						<time>2025-09-16T11:09:09Z</time>
					</trkpt>
					<trkpt lat="48.651480" lon="-0.932300">
						<ele>315</ele>
						<time>2025-09-16T11:09:20Z</time>
					</trkpt>
					<trkpt lat="48.651310" lon="-0.932330">
						<ele>315</ele>
						<time>2025-09-16T11:09:29Z</time>
					</trkpt>
					<trkpt lat="48.651070" lon="-0.932370">
						<ele>315</ele>
						<time>2025-09-16T11:09:41Z</time>
					</trkpt>
					<trkpt lat="48.650610" lon="-0.932610">
						<ele>316</ele>
						<time>2025-09-16T11:10:05Z</time>
					</trkpt>
					<trkpt lat="48.650140" lon="-0.932860">
						<ele>317</ele>
						<time>2025-09-16T11:10:30Z</time>
					</trkpt>
					<trkpt lat="48.649150" lon="-0.932790">
						<ele>317</ele>
						<time>2025-09-16T11:11:20Z</time>
					</trkpt>
					<trkpt lat="48.648210" lon="-0.932600">
						<ele>315</ele>
						<time>2025-09-16T11:12:07Z</time>
					</trkpt>
					<trkpt lat="48.647840" lon="-0.932550">
						<ele>313</ele>
						<time>2025-09-16T11:12:26Z</time>
					</trkpt>
					<trkpt lat="48.647500" lon="-0.932570">
						<ele>310</ele>
						<time>2025-09-16T11:12:43Z</time>
					</trkpt>
					<trkpt lat="48.647370" lon="-0.932650">
						<ele>309</ele>
						<time>2025-09-16T11:12:50Z</time>
					</trkpt>
					<trkpt lat="48.647330" lon="-0.932840">
						<ele>308</ele>
						<time>2025-09-16T11:12:57Z</time>
					</trkpt>
					<trkpt lat="48.647190" lon="-0.933300">
						<ele>307</ele>
						<time>2025-09-16T11:13:13Z</time>
					</trkpt>
					<trkpt lat="48.646850" lon="-0.933390">
						<ele>308</ele>
						<time>2025-09-16T11:13:31Z</time>
					</trkpt>
					<trkpt lat="48.646810" lon="-0.933390">
						<ele>308</ele>
						<time>2025-09-16T11:13:33Z</time>
					</trkpt>
					<trkpt lat="48.646040" lon="-0.933320">
						<ele>310</ele>
						<time>2025-09-16T11:14:11Z</time>
					</trkpt>
					<trkpt lat="48.645370" lon="-0.933260">
						<ele>314</ele>
						<time>2025-09-16T11:14:45Z</time>
					</trkpt>
					<trkpt lat="48.644820" lon="-0.933220">
						<ele>316</ele>
						<time>2025-09-16T11:15:12Z</time>
					</trkpt>
					<trkpt lat="48.644200" lon="-0.933140">
						<ele>315</ele>
						<time>2025-09-16T11:15:43Z</time>
					</trkpt>
					<trkpt lat="48.643880" lon="-0.933100">
						<ele>311</ele>
						<time>2025-09-16T11:15:59Z</time>
					</trkpt>
					<trkpt lat="48.643740" lon="-0.933080">
						<ele>309</ele>
						<time>2025-09-16T11:16:07Z</time>
					</trkpt>
					<trkpt lat="48.643680" lon="-0.933450">
						<ele>306</ele>
						<time>2025-09-16T11:16:19Z</time>
					</trkpt>
					<trkpt lat="48.643780" lon="-0.933570">
						<ele>305</ele>
						<time>2025-09-16T11:16:25Z</time>
					</trkpt>
					<trkpt lat="48.644050" lon="-0.933870">
						<ele>304</ele>
						<time>2025-09-16T11:16:42Z</time>
					</trkpt>
					<trkpt lat="48.644420" lon="-0.934270">
						<ele>300</ele>
						<time>2025-09-16T11:17:05Z</time>
					</trkpt>
					<trkpt lat="48.644800" lon="-0.934330">
						<ele>299</ele>
						<time>2025-09-16T11:17:24Z</time>
					</trkpt>
					<trkpt lat="48.645030" lon="-0.934340">
						<ele>300</ele>
						<time>2025-09-16T11:17:36Z</time>
					</trkpt>
					<trkpt lat="48.645350" lon="-0.934170">
						<ele>302</ele>
						<time>2025-09-16T11:17:53Z</time>
					</trkpt>
					<trkpt lat="48.645690" lon="-0.933980">
						<ele>304</ele>
						<time>2025-09-16T11:18:11Z</time>
					</trkpt>
					<trkpt lat="48.645950" lon="-0.933630">
						<ele>307</ele>
						<time>2025-09-16T11:18:28Z</time>
					</trkpt>
					<trkpt lat="48.646030" lon="-0.933320">
						<ele>310</ele>
						<time>2025-09-16T11:18:39Z</time>
					</trkpt>
					<trkpt lat="48.646490" lon="-0.933400">
						<ele>309</ele>
						<time>2025-09-16T11:19:02Z</time>
					</trkpt>
					<trkpt lat="48.646760" lon="-0.933400">
						<ele>308</ele>
						<time>2025-09-16T11:19:16Z</time>
					</trkpt>
					<trkpt lat="48.647090" lon="-0.933270">
						<ele>308</ele>
						<time>2025-09-16T11:19:33Z</time>
					</trkpt>
					<trkpt lat="48.647180" lon="-0.933250">
						<ele>307</ele>
						<time>2025-09-16T11:19:37Z</time>
					</trkpt>
					<trkpt lat="48.647020" lon="-0.933600">
						<ele>304</ele>
						<time>2025-09-16T11:19:52Z</time>
					</trkpt>
					<trkpt lat="48.646860" lon="-0.933820">
						<ele>302</ele>
						<time>2025-09-16T11:20:02Z</time>
					</trkpt>
					<trkpt lat="48.646640" lon="-0.934030">
						<ele>301</ele>
						<time>2025-09-16T11:20:15Z</time>
					</trkpt>
					<trkpt lat="48.646510" lon="-0.934180">
						<ele>299</ele>
						<time>2025-09-16T11:20:24Z</time>
					</trkpt>
					<trkpt lat="48.646340" lon="-0.934610">
						<ele>293</ele>
						<time>2025-09-16T11:20:40Z</time>
					</trkpt>
					<trkpt lat="48.646710" lon="-0.934330">
						<ele>296</ele>
						<time>2025-09-16T11:21:01Z</time>
					</trkpt>
					<trkpt lat="48.647290" lon="-0.933970">
						<ele>298</ele>
						<time>2025-09-16T11:21:32Z</time>
					</trkpt>
					<trkpt lat="48.647820" lon="-0.933840">
						<ele>301</ele>
						<time>2025-09-16T11:21:59Z</time>
					</trkpt>
					<trkpt lat="48.648160" lon="-0.933810">
						<ele>304</ele>
						<time>2025-09-16T11:22:16Z</time>
					</trkpt>
					<trkpt lat="48.648310" lon="-0.933860">
						<ele>304</ele>
						<time>2025-09-16T11:22:24Z</time>
					</trkpt>
					<trkpt lat="48.648590" lon="-0.934110">
						<ele>299</ele>
						<time>2025-09-16T11:22:40Z</time>
					</trkpt>
					<trkpt lat="48.648990" lon="-0.934220">
						<ele>297</ele>
						<time>2025-09-16T11:23:00Z</time>
					</trkpt>
					<trkpt lat="48.649430" lon="-0.934260">
						<ele>296</ele>
						<time>2025-09-16T11:23:22Z</time>
					</trkpt>
					<trkpt lat="48.649800" lon="-0.934440">
						<ele>295</ele>
						<time>2025-09-16T11:23:42Z</time>
					</trkpt>
					<trkpt lat="48.650320" lon="-0.934610">
						<ele>294</ele>
						<time>2025-09-16T11:24:09Z</time>
					</trkpt>
					<trkpt lat="48.650960" lon="-0.934840">
						<ele>292</ele>
						<time>2025-09-16T11:24:41Z</time>
					</trkpt>
					<trkpt lat="48.651530" lon="-0.934990">
						<ele>290</ele>
						<time>2025-09-16T11:25:10Z</time>
					</trkpt>
					<trkpt lat="48.651830" lon="-0.935120">
						<ele>289</ele>
						<time>2025-09-16T11:25:26Z</time>
					</trkpt>
					<trkpt lat="48.652020" lon="-0.935230">
						<ele>289</ele>
						<time>2025-09-16T11:25:36Z</time>
					</trkpt>
					<trkpt lat="48.652370" lon="-0.935280">
						<ele>289</ele>
						<time>2025-09-16T11:25:54Z</time>
					</trkpt>
					<trkpt lat="48.652790" lon="-0.935220">
						<ele>291</ele>
						<time>2025-09-16T11:26:15Z</time>
					</trkpt>
					<trkpt lat="48.653100" lon="-0.935250">
						<ele>291</ele>
						<time>2025-09-16T11:26:30Z</time>
					</trkpt>
					<trkpt lat="48.653530" lon="-0.935320">
						<ele>290</ele>
						<time>2025-09-16T11:26:52Z</time>
					</trkpt>
					<trkpt lat="48.653780" lon="-0.935440">
						<ele>290</ele>
						<time>2025-09-16T11:27:05Z</time>
					</trkpt>
					<trkpt lat="48.654140" lon="-0.935710">
						<ele>287</ele>
						<time>2025-09-16T11:27:25Z</time>
					</trkpt>
					<trkpt lat="48.654050" lon="-0.935810">
						<ele>286</ele>
						<time>2025-09-16T11:27:31Z</time>
					</trkpt>
					<trkpt lat="48.653910" lon="-0.936310">
						<ele>279</ele>
						<time>2025-09-16T11:27:49Z</time>
					</trkpt>
					<trkpt lat="48.653820" lon="-0.936560">
						<ele>276</ele>
						<time>2025-09-16T11:27:58Z</time>
					</trkpt>
					<trkpt lat="48.653650" lon="-0.937020">
						<ele>272</ele>
						<time>2025-09-16T11:28:16Z</time>
					</trkpt>
					<trkpt lat="48.653490" lon="-0.937540">
						<ele>268</ele>
						<time>2025-09-16T11:28:35Z</time>
					</trkpt>
					<trkpt lat="48.653440" lon="-0.937910">
						<ele>264</ele>
						<time>2025-09-16T11:28:47Z</time>
					</trkpt>
					<trkpt lat="48.652710" lon="-0.938230">
						<ele>259</ele>
						<time>2025-09-16T11:29:25Z</time>
					</trkpt>
					<trkpt lat="48.652110" lon="-0.938480">
						<ele>257</ele>
						<time>2025-09-16T11:29:56Z</time>
					</trkpt>
					<trkpt lat="48.651730" lon="-0.938630">
						<ele>255</ele>
						<time>2025-09-16T11:30:16Z</time>
					</trkpt>
					<trkpt lat="48.651270" lon="-0.938700">
						<ele>254</ele>
						<time>2025-09-16T11:30:39Z</time>
					</trkpt>
					<trkpt lat="48.650440" lon="-0.938720">
						<ele>253</ele>
						<time>2025-09-16T11:31:21Z</time>
					</trkpt>
					<trkpt lat="48.650480" lon="-0.939150">
						<ele>247</ele>
						<time>2025-09-16T11:31:35Z</time>
					</trkpt>
					<trkpt lat="48.650460" lon="-0.939270">
						<ele>245</ele>
						<time>2025-09-16T11:31:39Z</time>
					</trkpt>
					<trkpt lat="48.650620" lon="-0.939560">
						<ele>241</ele>
						<time>2025-09-16T11:31:52Z</time>
					</trkpt>
					<trkpt lat="48.650940" lon="-0.939930">
						<ele>235</ele>
						<time>2025-09-16T11:32:12Z</time>
					</trkpt>
					<trkpt lat="48.650850" lon="-0.940040">
						<ele>234</ele>
						<time>2025-09-16T11:32:18Z</time>
					</trkpt>
					<trkpt lat="48.650980" lon="-0.940460">
						<ele>228</ele>
						<time>2025-09-16T11:32:33Z</time>
					</trkpt>
					<trkpt lat="48.650600" lon="-0.940760">
						<ele>225</ele>
						<time>2025-09-16T11:32:54Z</time>
					</trkpt>
					<trkpt lat="48.650440" lon="-0.940890">
						<ele>224</ele>
						<time>2025-09-16T11:33:03Z</time>
					</trkpt>
					<trkpt lat="48.650170" lon="-0.941180">
						<ele>220</ele>
						<time>2025-09-16T11:33:20Z</time>
					</trkpt>
					<trkpt lat="48.649830" lon="-0.941440">
						<ele>219</ele>
						<time>2025-09-16T11:33:39Z</time>
					</trkpt>
					<trkpt lat="48.649920" lon="-0.941650">
						<ele>216</ele>
						<time>2025-09-16T11:33:47Z</time>
					</trkpt>
					<trkpt lat="48.650020" lon="-0.941900">
						<ele>213</ele>
						<time>2025-09-16T11:33:57Z</time>
					</trkpt>
					<trkpt lat="48.650310" lon="-0.941960">
						<ele>210</ele>
						<time>2025-09-16T11:34:12Z</time>
					</trkpt>
					<trkpt lat="48.650410" lon="-0.942610">
						<ele>201</ele>
						<time>2025-09-16T11:34:34Z</time>
					</trkpt>
					<trkpt lat="48.650170" lon="-0.942670">
						<ele>203</ele>
						<time>2025-09-16T11:34:46Z</time>
					</trkpt>
					<trkpt lat="48.650010" lon="-0.942860">
						<ele>202</ele>
						<time>2025-09-16T11:34:56Z</time>
					</trkpt>
					<trkpt lat="48.649710" lon="-0.943210">
						<ele>200</ele>
						<time>2025-09-16T11:35:15Z</time>
					</trkpt>
					<trkpt lat="48.649360" lon="-0.943540">
						<ele>199</ele>
						<time>2025-09-16T11:35:36Z</time>
					</trkpt>
					<trkpt lat="48.649160" lon="-0.943690">
						<ele>200</ele>
						<time>2025-09-16T11:35:47Z</time>
					</trkpt>
					<trkpt lat="48.648870" lon="-0.943730">
						<ele>203</ele>
						<time>2025-09-16T11:36:01Z</time>
					</trkpt>
					<trkpt lat="48.648650" lon="-0.943800">
						<ele>206</ele>
						<time>2025-09-16T11:36:13Z</time>
					</trkpt>
					<trkpt lat="48.648390" lon="-0.943700">
						<ele>210</ele>
						<time>2025-09-16T11:36:26Z</time>
					</trkpt>
					<trkpt lat="48.648220" lon="-0.943600">
						<ele>211</ele>
						<time>2025-09-16T11:36:35Z</time>
					</trkpt>
					<trkpt lat="48.648130" lon="-0.943660">
						<ele>211</ele>
						<time>2025-09-16T11:36:40Z</time>
					</trkpt>
					<trkpt lat="48.648240" lon="-0.944170">
						<ele>206</ele>
						<time>2025-09-16T11:36:58Z</time>
					</trkpt>
					<trkpt lat="48.648340" lon="-0.944560">
						<ele>204</ele>
						<time>2025-09-16T11:37:12Z</time>
					</trkpt>
					<trkpt lat="48.648350" lon="-0.944770">
						<ele>203</ele>
						<time>2025-09-16T11:37:19Z</time>
					</trkpt>
					</trkseg>
				</trk>
			</gpx>